Time;durP1;ratioP1;P1;durP2;ratioP2;P2;SDS_P1;SDS_P2;PMS_P1;PMS_P2;Temp;Humidity;BMP_temperature;BMP_pressure;BME280_temperature;BME280_humidity;BME280_pressure;Samples;Min_cycle;Max_cycle;Signal;HPM_P1;HPM_P2
2022/10/24 01:00:08;;;;;;;22.63;18.77;;;17.60;99.90;;;;;;5087754;28;20091;-66
2022/10/24 01:02:34;;;;;;;27.50;19.42;;;17.60;99.90;;;;;;5093126;28;20059;-66
2022/10/24 01:05:02;;;;;;;21.77;17.05;;;17.60;99.90;;;;;;5094697;28;20043;-66
2022/10/24 01:07:59;;;;;;;17.45;15.75;;;17.60;99.90;;;;;;5095869;28;20579;-63
2022/10/24 01:10:40;;;;;;;25.80;18.13;;;17.60;99.90;;;;;;5095817;28;20102;-66
2022/10/24 01:14:13;;;;;;;26.23;18.40;;;17.60;99.90;;;;;;5095857;28;20048;-66
2022/10/24 01:16:50;;;;;;;25.90;18.02;;;17.60;99.90;;;;;;5021291;28;20045;-66
2022/10/24 01:19:34;;;;;;;28.65;18.70;;;17.60;99.90;;;;;;5087237;28;20032;-66
2022/10/24 01:22:06;;;;;;;19.52;16.60;;;17.50;99.90;;;;;;5095569;28;20028;-66
2022/10/24 01:24:38;;;;;;;21.95;16.65;;;17.50;99.90;;;;;;5095437;28;20070;-67
2022/10/24 01:27:29;;;;;;;20.00;14.82;;;17.60;99.90;;;;;;5095929;28;20028;-66
2022/10/24 01:29:57;;;;;;;18.42;15.32;;;17.50;99.90;;;;;;5074932;28;20482;-67
2022/10/24 01:32:44;;;;;;;18.20;16.30;;;17.50;99.90;;;;;;5074874;28;20037;-66
2022/10/24 01:35:18;;;;;;;26.83;15.90;;;17.50;99.90;;;;;;5075153;28;20037;-66
2022/10/24 01:37:52;;;;;;;18.08;15.52;;;17.40;99.90;;;;;;5075210;28;20040;-64
2022/10/24 01:40:23;;;;;;;19.23;15.55;;;17.40;99.90;;;;;;5075359;28;20112;-66
2022/10/24 01:42:51;;;;;;;24.48;17.33;;;17.40;99.90;;;;;;5075113;28;20146;-66
2022/10/24 01:45:24;;;;;;;19.45;16.90;;;17.40;99.90;;;;;;5073983;28;20394;-66
2022/10/24 01:47:54;;;;;;;31.42;19.92;;;17.40;99.90;;;;;;5075051;28;20501;-66
2022/10/24 01:50:22;;;;;;;24.40;20.67;;;17.50;99.90;;;;;;5074835;28;20124;-64
2022/10/24 01:52:49;;;;;;;26.08;20.20;;;17.50;99.90;;;;;;5074774;28;20174;-64
2022/10/24 01:55:15;;;;;;;24.10;18.95;;;17.50;99.90;;;;;;5074970;28;20479;-66
2022/10/24 01:57:41;;;;;;;25.65;20.25;;;17.50;99.90;;;;;;5074541;28;20032;-66
2022/10/24 02:00:16;;;;;;;23.70;20.80;;;17.50;99.90;;;;;;5074671;28;20139;-64
2022/10/24 02:02:45;;;;;;;29.52;21.77;;;17.50;99.90;;;;;;5073736;28;20093;-66
2022/10/24 02:05:14;;;;;;;27.80;20.40;;;17.50;99.90;;;;;;5072063;28;20028;-67
2022/10/24 02:07:42;;;;;;;34.13;21.23;;;17.50;99.90;;;;;;5072326;28;20125;-66
2022/10/24 02:10:12;;;;;;;27.63;21.77;;;17.50;99.90;;;;;;5074817;28;20393;-66
2022/10/24 02:12:43;;;;;;;27.40;21.55;;;17.50;99.90;;;;;;5074456;28;20123;-66
2022/10/24 02:15:25;;;;;;;31.60;21.67;;;17.50;99.90;;;;;;5074470;28;20122;-66
2022/10/24 02:17:53;;;;;;;23.50;20.73;;;17.60;99.90;;;;;;5074569;28;20045;-66
2022/10/24 02:20:26;;;;;;;25.60;20.25;;;17.60;99.90;;;;;;5074552;28;20059;-66
2022/10/24 02:22:59;;;;;;;34.70;20.65;;;17.60;99.90;;;;;;5074222;28;20029;-66
2022/10/24 02:25:40;;;;;;;27.15;20.88;;;17.60;99.90;;;;;;5073986;28;20040;-66
2022/10/24 02:28:11;;;;;;;27.50;20.83;;;17.60;99.90;;;;;;5074222;28;20032;-64
2022/10/24 02:30:47;;;;;;;32.88;21.65;;;17.60;99.90;;;;;;5074255;28;20033;-64
2022/10/24 02:33:14;;;;;;;25.70;20.20;;;17.60;99.90;;;;;;5074189;28;20040;-66
2022/10/24 02:35:42;;;;;;;27.55;20.30;;;17.60;99.90;;;;;;5074171;28;20134;-66
2022/10/24 02:38:16;;;;;;;23.70;20.80;;;17.60;99.90;;;;;;5073839;28;20037;-64
2022/10/24 02:40:43;;;;;;;29.58;20.95;;;17.60;99.90;;;;;;5074023;28;20040;-66
2022/10/24 02:43:11;;;;;;;27.58;20.83;;;17.60;99.90;;;;;;5074042;28;20032;-66
2022/10/24 02:45:38;;;;;;;28.88;20.15;;;17.70;99.90;;;;;;5073960;28;20035;-66
2022/10/24 02:48:08;;;;;;;30.83;19.88;;;17.60;99.90;;;;;;5073739;28;20438;-66
2022/10/24 02:50:36;;;;;;;24.35;19.65;;;17.60;99.90;;;;;;5073841;28;20024;-66
2022/10/24 02:53:02;;;;;;;25.77;19.92;;;17.60;99.90;;;;;;5073661;28;20052;-66
2022/10/24 02:55:27;;;;;;;25.65;19.58;;;17.70;99.90;;;;;;5073686;28;20033;-64
2022/10/24 02:57:53;;;;;;;27.42;19.10;;;17.70;99.90;;;;;;5073371;28;20466;-64
2022/10/24 03:00:19;;;;;;;27.95;18.90;;;17.70;99.90;;;;;;5073729;28;20111;-64
2022/10/24 03:02:45;;;;;;;24.42;18.75;;;17.70;99.90;;;;;;5073509;28;20036;-66
2022/10/24 03:05:10;;;;;;;27.35;19.17;;;17.70;99.90;;;;;;5073484;28;20032;-67
2022/10/24 03:07:36;;;;;;;28.65;19.23;;;17.70;99.90;;;;;;5073405;28;20116;-66
2022/10/24 03:10:02;;;;;;;26.60;19.35;;;17.70;99.90;;;;;;5073408;28;20070;-64
2022/10/24 03:12:28;;;;;;;26.30;19.63;;;17.70;99.90;;;;;;5073293;28;20076;-66
2022/10/24 03:14:53;;;;;;;23.85;19.38;;;17.70;99.90;;;;;;5073398;28;20433;-66
2022/10/24 03:17:20;;;;;;;28.92;20.95;;;17.70;99.90;;;;;;5073243;28;20048;-64
2022/10/24 03:19:46;;;;;;;29.05;20.13;;;17.70;99.90;;;;;;5072116;28;20368;-66
2022/10/24 03:22:11;;;;;;;25.67;19.20;;;17.70;99.90;;;;;;5073073;28;20043;-66
2022/10/24 03:24:37;;;;;;;25.48;19.50;;;17.70;99.90;;;;;;5073331;28;20107;-66
2022/10/24 03:27:03;;;;;;;24.02;19.77;;;17.70;99.90;;;;;;5073065;28;20036;-66
2022/10/24 03:29:29;;;;;;;23.08;19.70;;;17.70;99.90;;;;;;5073326;28;20025;-66
2022/10/24 03:31:54;;;;;;;28.83;19.85;;;17.70;99.90;;;;;;5073071;28;20389;-66
2022/10/24 03:34:20;;;;;;;23.73;18.50;;;17.70;99.90;;;;;;5073025;28;20467;-67
2022/10/24 03:36:45;;;;;;;31.88;19.52;;;17.70;99.90;;;;;;5073127;28;20059;-66
2022/10/24 03:39:11;;;;;;;23.90;19.17;;;17.70;99.90;;;;;;5072738;28;20033;-66
2022/10/24 03:41:37;;;;;;;26.38;19.00;;;17.70;99.90;;;;;;5073054;28;20029;-66
2022/10/24 03:44:02;;;;;;;23.17;18.88;;;17.70;99.90;;;;;;5073332;28;20041;-66
2022/10/24 03:46:28;;;;;;;23.50;18.52;;;17.70;99.90;;;;;;5072988;28;20048;-66
2022/10/24 03:48:54;;;;;;;24.23;18.20;;;17.70;99.90;;;;;;5072793;28;20142;-64
2022/10/24 03:51:19;;;;;;;24.27;19.42;;;17.70;99.90;;;;;;5072938;28;20100;-66
2022/10/24 03:53:45;;;;;;;28.38;19.77;;;17.70;99.90;;;;;;5072798;28;20048;-66
2022/10/24 03:56:11;;;;;;;23.83;18.63;;;17.70;99.90;;;;;;5073160;28;20037;-66
2022/10/24 03:58:37;;;;;;;23.52;18.70;;;17.70;99.90;;;;;;5072846;28;20056;-66
2022/10/24 04:01:02;;;;;;;20.83;18.70;;;17.70;99.90;;;;;;5072877;28;20027;-66
2022/10/24 04:03:28;;;;;;;28.77;17.58;;;17.70;99.90;;;;;;5072612;28;20035;-66
2022/10/24 04:05:54;;;;;;;23.95;17.42;;;17.70;99.90;;;;;;5073072;28;20033;-66
2022/10/24 04:08:20;;;;;;;21.23;18.75;;;17.70;99.90;;;;;;5072645;28;20048;-66
2022/10/24 04:10:47;;;;;;;30.80;17.98;;;17.70;99.90;;;;;;5072821;28;20433;-66
2022/10/24 04:13:12;;;;;;;21.90;17.50;;;17.70;99.90;;;;;;5072423;28;20076;-66
2022/10/24 04:15:38;;;;;;;23.50;18.83;;;17.70;99.90;;;;;;5072776;28;20494;-66
2022/10/24 04:18:04;;;;;;;22.42;19.38;;;17.70;99.90;;;;;;5072701;28;20146;-66
2022/10/24 04:20:30;;;;;;;24.90;19.17;;;17.70;99.90;;;;;;5072737;28;20099;-66
2022/10/24 04:22:55;;;;;;;24.52;19.30;;;17.70;99.90;;;;;;5072567;28;20091;-67
2022/10/24 04:25:21;;;;;;;21.17;17.70;;;17.70;99.90;;;;;;5072720;28;20028;-66
2022/10/24 04:27:47;;;;;;;26.00;19.85;;;17.70;99.90;;;;;;5072455;28;20040;-66
2022/10/24 04:30:14;;;;;;;28.20;19.48;;;17.70;99.90;;;;;;5072724;28;20029;-66
2022/10/24 04:32:40;;;;;;;29.60;18.48;;;17.70;99.90;;;;;;5072436;28;20045;-66
2022/10/24 04:35:06;;;;;;;22.02;17.63;;;17.70;99.90;;;;;;5074658;28;20394;-66
2022/10/24 04:37:31;;;;;;;22.55;17.75;;;17.70;99.90;;;;;;5076435;28;20115;-66
2022/10/24 04:39:57;;;;;;;25.67;18.02;;;17.70;99.90;;;;;;5076393;28;20505;-66
2022/10/24 04:42:23;;;;;;;23.08;18.25;;;17.70;99.90;;;;;;5076243;28;20032;-65
2022/10/24 04:44:49;;;;;;;20.52;18.25;;;17.70;99.90;;;;;;5072831;28;20486;-64
2022/10/24 04:47:16;;;;;;;25.95;17.85;;;17.80;99.90;;;;;;5073453;28;20143;-65
2022/10/24 04:49:41;;;;;;;25.48;18.17;;;17.70;99.90;;;;;;5076081;28;20035;-66
2022/10/24 04:52:07;;;;;;;22.38;17.83;;;17.70;99.90;;;;;;5076074;28;20040;-66
2022/10/24 04:54:33;;;;;;;22.60;18.70;;;17.70;99.90;;;;;;5076050;28;20036;-66
2022/10/24 04:56:58;;;;;;;25.42;17.92;;;17.70;99.90;;;;;;5075929;28;20058;-66
2022/10/24 04:59:24;;;;;;;23.30;18.60;;;17.70;99.90;;;;;;5075899;28;20084;-66
2022/10/24 05:01:49;;;;;;;25.52;18.70;;;17.70;99.90;;;;;;5075952;28;20102;-66
2022/10/24 05:04:15;;;;;;;19.98;17.75;;;17.70;99.90;;;;;;5076096;28;20037;-66
2022/10/24 05:06:41;;;;;;;25.40;17.52;;;17.70;99.90;;;;;;5075838;28;20025;-66
2022/10/24 05:09:06;;;;;;;22.83;18.95;;;17.80;99.90;;;;;;5073229;28;20068;-66
2022/10/24 05:11:32;;;;;;;26.05;19.10;;;17.70;99.90;;;;;;5072994;28;20036;-66
2022/10/24 05:13:58;;;;;;;27.80;18.45;;;17.70;99.90;;;;;;5073147;28;20128;-66
2022/10/24 05:16:24;;;;;;;29.52;18.90;;;17.80;99.90;;;;;;5075440;28;20099;-64
2022/10/24 05:18:50;;;;;;;26.45;17.88;;;17.70;99.90;;;;;;5075650;28;20064;-66
2022/10/24 05:21:15;;;;;;;27.98;17.52;;;17.70;99.90;;;;;;5075383;28;20025;-64
2022/10/24 05:23:41;;;;;;;32.90;18.67;;;17.70;99.90;;;;;;5075086;28;20505;-67
2022/10/24 05:26:07;;;;;;;28.95;17.83;;;17.70;99.90;;;;;;5075647;28;20033;-64
2022/10/24 05:28:33;;;;;;;24.67;17.45;;;17.70;99.90;;;;;;5074205;28;20474;-64
2022/10/24 05:30:59;;;;;;;32.75;17.30;;;17.70;99.90;;;;;;5075315;28;20029;-64
2022/10/24 05:33:25;;;;;;;26.95;16.95;;;17.70;99.90;;;;;;5075200;28;20044;-66
2022/10/24 05:35:51;;;;;;;25.48;17.23;;;17.60;99.90;;;;;;5075248;28;20033;-66
2022/10/24 05:38:17;;;;;;;26.48;16.98;;;17.60;99.90;;;;;;5075005;28;20033;-67
2022/10/24 05:40:46;;;;;;;28.30;18.77;;;17.60;99.90;;;;;;5075255;28;20036;-64
2022/10/24 05:43:12;;;;;;;23.20;17.27;;;17.70;99.90;;;;;;5075321;28;20386;-66
2022/10/24 05:45:38;;;;;;;22.73;17.98;;;17.70;99.90;;;;;;5074714;28;20032;-66
2022/10/24 05:48:04;;;;;;;29.08;19.33;;;17.70;99.90;;;;;;5074909;28;20032;-66
2022/10/24 05:50:30;;;;;;;21.45;18.17;;;17.70;99.90;;;;;;5075051;28;20091;-66
2022/10/24 05:52:55;;;;;;;23.98;20.05;;;17.70;99.90;;;;;;5074591;28;20098;-64
2022/10/24 05:55:21;;;;;;;24.90;19.85;;;17.70;99.90;;;;;;5074805;28;20028;-66
2022/10/24 05:57:47;;;;;;;26.15;17.13;;;17.70;99.90;;;;;;5074694;28;20047;-66
2022/10/24 06:00:14;;;;;;;25.90;17.60;;;17.70;99.90;;;;;;5074267;28;20044;-66
2022/10/24 06:02:40;;;;;;;29.48;18.83;;;17.70;99.90;;;;;;5074503;28;20103;-66
2022/10/24 06:05:08;;;;;;;20.88;17.92;;;17.70;99.90;;;;;;5079195;28;20036;-66
2022/10/24 06:07:34;;;;;;;23.23;19.13;;;17.70;99.90;;;;;;5094881;28;20032;-66
2022/10/24 06:10:01;;;;;;;25.17;18.10;;;17.80;99.90;;;;;;5094894;28;20055;-66
2022/10/24 06:12:27;;;;;;;23.60;17.85;;;17.80;99.90;;;;;;5094696;28;20549;-66
2022/10/24 06:14:57;;;;;;;23.52;17.58;;;17.80;99.90;;;;;;5094922;28;20116;-66
2022/10/24 06:17:22;;;;;;;22.75;18.00;;;17.80;99.90;;;;;;5094384;28;20039;-66
2022/10/24 06:19:49;;;;;;;24.98;19.48;;;17.80;99.90;;;;;;5094637;28;20382;-66
2022/10/24 06:22:16;;;;;;;23.85;18.20;;;17.80;99.90;;;;;;5094647;28;20517;-66
2022/10/24 06:24:41;;;;;;;27.60;19.25;;;17.80;99.90;;;;;;5094730;28;20481;-66
2022/10/24 06:27:07;;;;;;;30.65;20.08;;;17.80;99.90;;;;;;5094545;28;20028;-66
2022/10/24 06:29:33;;;;;;;28.75;17.88;;;17.80;99.90;;;;;;5094374;28;20086;-66
2022/10/24 06:31:59;;;;;;;24.05;17.80;;;17.80;99.90;;;;;;5093040;28;20485;-67
2022/10/24 06:34:25;;;;;;;21.23;17.50;;;17.80;99.90;;;;;;5093892;28;20546;-66
2022/10/24 06:36:50;;;;;;;30.25;19.13;;;17.80;99.90;;;;;;5094385;28;20035;-66
2022/10/24 06:39:16;;;;;;;28.60;19.20;;;17.80;99.90;;;;;;5094192;28;20028;-66
2022/10/24 06:41:42;;;;;;;32.15;19.88;;;17.90;99.90;;;;;;5094365;28;20393;-66
2022/10/24 06:44:07;;;;;;;22.23;18.92;;;17.90;99.90;;;;;;5094066;28;20481;-66
2022/10/24 06:46:33;;;;;;;23.55;18.95;;;17.90;99.90;;;;;;5094119;28;20040;-67
2022/10/24 06:48:59;;;;;;;25.52;18.95;;;17.90;99.90;;;;;;5094109;28;20475;-66
2022/10/24 06:51:24;;;;;;;31.88;19.15;;;18.00;99.90;;;;;;5094138;28;20028;-66
2022/10/24 06:53:50;;;;;;;38.65;21.55;;;17.90;99.90;;;;;;5094186;28;20052;-66
2022/10/24 06:56:17;;;;;;;28.38;20.88;;;17.90;99.90;;;;;;5093571;28;20417;-66
2022/10/24 06:58:43;;;;;;;25.95;18.77;;;18.00;99.90;;;;;;5093157;28;20040;-66
2022/10/24 07:01:11;;;;;;;24.23;18.50;;;18.00;99.90;;;;;;5093668;28;20036;-66
2022/10/24 07:03:37;;;;;;;24.70;18.40;;;18.00;99.90;;;;;;5093725;28;20036;-66
2022/10/24 07:06:13;;;;;;;31.30;18.15;;;18.00;99.90;;;;;;5093910;28;20111;-66
2022/10/24 07:08:39;;;;;;;22.02;16.63;;;18.10;99.90;;;;;;5094132;28;20040;-66
2022/10/24 07:11:05;;;;;;;23.98;16.63;;;18.10;99.90;;;;;;5093786;28;20028;-65
2022/10/24 07:13:30;;;;;;;26.48;17.88;;;18.10;99.90;;;;;;5093522;28;20083;-66
2022/10/24 07:15:56;;;;;;;22.63;16.23;;;18.10;99.90;;;;;;5093475;28;20043;-66
2022/10/24 07:18:22;;;;;;;22.95;18.00;;;18.10;99.90;;;;;;5093442;28;20032;-66
2022/10/24 07:20:47;;;;;;;29.67;17.95;;;18.10;99.90;;;;;;5093394;28;20112;-66
2022/10/24 07:23:13;;;;;;;29.98;19.25;;;18.10;99.90;;;;;;5093111;28;20032;-66
2022/10/24 07:25:40;;;;;;;26.02;18.60;;;18.10;99.90;;;;;;5093336;28;20036;-66
2022/10/24 07:28:07;;;;;;;28.77;18.65;;;18.20;99.90;;;;;;5093403;28;20036;-66
2022/10/24 07:30:33;;;;;;;29.42;17.08;;;18.10;99.90;;;;;;5093254;28;20028;-66
2022/10/24 07:32:59;;;;;;;26.08;19.25;;;18.10;99.90;;;;;;5093384;28;20039;-65
2022/10/24 07:35:24;;;;;;;34.63;19.60;;;18.20;99.90;;;;;;5093596;28;20036;-65
2022/10/24 07:37:52;;;;;;;33.00;20.30;;;18.20;99.90;;;;;;5093185;28;20359;-66
2022/10/24 07:40:18;;;;;;;25.50;18.88;;;18.30;99.90;;;;;;5093186;28;20032;-65
2022/10/24 07:42:43;;;;;;;20.05;16.52;;;18.30;99.90;;;;;;5093143;28;20032;-65
2022/10/24 07:45:10;;;;;;;24.63;18.98;;;18.30;99.90;;;;;;5092752;28;20028;-66
2022/10/24 07:47:36;;;;;;;29.50;20.95;;;18.30;99.90;;;;;;5096664;28;20040;-66
2022/10/24 07:50:02;;;;;;;26.98;19.30;;;18.40;99.90;;;;;;5113646;28;20030;-65
2022/10/24 07:52:28;;;;;;;22.40;18.55;;;18.40;99.90;;;;;;5113278;28;20040;-65
2022/10/24 07:54:54;;;;;;;24.52;19.00;;;18.40;99.90;;;;;;5112849;28;20465;-66
2022/10/24 07:57:20;;;;;;;28.63;20.25;;;18.40;99.90;;;;;;5113215;28;20088;-66
2022/10/24 07:59:45;;;;;;;38.15;21.52;;;18.50;99.90;;;;;;5113150;28;20077;-67
2022/10/24 08:02:13;;;;;;;27.33;19.17;;;18.50;99.90;;;;;;5113406;28;20036;-66
2022/10/24 08:04:39;;;;;;;33.33;21.23;;;18.50;99.90;;;;;;5113336;28;20042;-66
2022/10/24 08:07:11;;;;;;;28.10;20.38;;;18.60;99.90;;;;;;5113349;28;20043;-66
2022/10/24 08:09:38;;;;;;;;;;;18.60;99.90;;;;;;5116896;28;20504;-66
2022/10/24 08:12:03;;;;;;;25.52;20.63;;;18.60;99.90;;;;;;5117326;28;20272;-66
2022/10/24 08:14:29;;;;;;;33.30;22.23;;;18.70;99.90;;;;;;5117333;27;20028;-66
2022/10/24 08:16:55;;;;;;;27.17;19.63;;;18.70;99.90;;;;;;5117174;28;20043;-66
2022/10/24 08:19:20;;;;;;;30.65;21.33;;;18.70;99.90;;;;;;5117061;28;20461;-66
2022/10/24 08:21:46;;;;;;;26.95;19.45;;;18.70;99.90;;;;;;5115792;28;20500;-66
2022/10/24 08:24:11;;;;;;;32.10;20.42;;;18.80;99.90;;;;;;5117338;28;20032;-66
2022/10/24 08:26:40;;;;;;;35.78;20.45;;;18.80;99.90;;;;;;5117141;28;20158;-66
2022/10/24 08:29:10;;;;;;;32.30;20.55;;;18.80;99.90;;;;;;5117203;27;20031;-66
2022/10/24 08:31:37;;;;;;;33.05;21.08;;;18.80;99.90;;;;;;5117238;28;20036;-66
2022/10/24 08:34:04;;;;;;;37.45;22.25;;;18.90;99.90;;;;;;5116853;28;20398;-66
2022/10/24 08:36:34;;;;;;;27.85;19.13;;;18.90;99.90;;;;;;5116938;28;20027;-66
2022/10/24 08:39:01;;;;;;;31.70;18.08;;;19.00;99.90;;;;;;5117421;28;20142;-66
2022/10/24 08:41:36;;;;;;;40.05;19.95;;;19.00;99.90;;;;;;5116783;28;20101;-66
2022/10/24 08:44:18;;;;;;;30.63;18.80;;;19.00;99.90;;;;;;5116630;28;20032;-66
2022/10/24 08:46:57;;;;;;;28.80;18.23;;;19.00;99.90;;;;;;5116722;28;20028;-65
2022/10/24 08:49:41;;;;;;;25.92;17.00;;;19.00;99.90;;;;;;5116619;28;20031;-66
2022/10/24 08:52:41;;;;;;;28.63;16.70;;;19.10;99.90;;;;;;5116577;28;20040;-66
2022/10/24 08:55:27;;;;;;;27.42;17.35;;;19.10;99.90;;;;;;5116412;28;20031;-66
2022/10/24 08:57:58;;;;;;;24.27;17.85;;;19.10;99.90;;;;;;5116406;28;20027;-65
2022/10/24 09:00:42;;;;;;;28.33;17.13;;;19.10;99.90;;;;;;5116329;28;20031;-67
2022/10/24 09:03:16;;;;;;;25.70;14.88;;;19.10;99.90;;;;;;5116660;28;20039;-66
2022/10/24 09:05:47;;;;;;;24.83;15.15;;;19.20;99.90;;;;;;5116591;28;20473;-67
2022/10/24 09:08:38;;;;;;;25.45;14.15;;;19.20;99.80;;;;;;5116513;28;20059;-66
2022/10/24 09:11:06;;;;;;;31.65;14.65;;;19.20;99.60;;;;;;5115171;28;20389;-66
2022/10/24 09:13:36;;;;;;;29.27;14.20;;;19.30;99.50;;;;;;5116021;28;20047;-67
2022/10/24 09:16:02;;;;;;;21.27;13.65;;;19.30;99.30;;;;;;5116404;28;20496;-66
2022/10/24 09:18:39;;;;;;;25.92;14.10;;;19.30;99.20;;;;;;5116341;28;20152;-66
2022/10/24 09:21:07;;;;;;;21.90;14.20;;;19.30;98.80;;;;;;5114943;28;20485;-65
2022/10/24 09:23:36;;;;;;;30.45;15.10;;;19.30;98.80;;;;;;5116108;28;20043;-66
2022/10/24 09:26:04;;;;;;;21.85;14.80;;;19.40;98.80;;;;;;5116258;28;20370;-66
2022/10/24 09:28:34;;;;;;;24.15;14.20;;;19.40;98.90;;;;;;5116677;28;20042;-67
2022/10/24 09:31:12;;;;;;;37.33;14.70;;;19.40;98.70;;;;;;5116307;28;20028;-66
2022/10/24 09:33:41;;;;;;;23.77;12.80;;;19.40;98.40;;;;;;5116106;28;20040;-66
2022/10/24 09:36:10;;;;;;;22.67;13.35;;;19.50;98.40;;;;;;5115980;28;20032;-66
2022/10/24 09:38:39;;;;;;;20.17;12.68;;;19.40;98.20;;;;;;5116073;28;20066;-66
2022/10/24 09:41:06;;;;;;;24.55;13.15;;;19.50;98.00;;;;;;5116077;28;20042;-66
2022/10/24 09:43:34;;;;;;;20.17;13.25;;;19.50;97.90;;;;;;5115704;28;20023;-66
2022/10/24 09:46:00;;;;;;;20.02;13.43;;;19.60;98.00;;;;;;5115518;27;20036;-66
2022/10/24 09:48:56;;;;;;;25.85;13.48;;;19.60;98.20;;;;;;5115888;28;20030;-67
2022/10/24 09:51:33;;;;;;;24.25;12.75;;;19.60;98.00;;;;;;5114715;28;20118;-66
2022/10/24 09:54:05;;;;;;;24.00;13.80;;;19.70;97.90;;;;;;5115802;28;20048;-66
2022/10/24 09:56:34;;;;;;;22.52;12.20;;;19.60;97.60;;;;;;5115315;28;20407;-66
2022/10/24 09:59:36;;;;;;;26.50;12.48;;;19.60;97.30;;;;;;5115392;28;20128;-66
2022/10/24 10:02:23;;;;;;;17.50;11.98;;;19.70;97.30;;;;;;5115722;28;20035;-67
2022/10/24 10:05:17;;;;;;;20.55;12.30;;;19.70;97.00;;;;;;5115452;28;20024;-67
2022/10/24 10:07:47;;;;;;;21.77;13.63;;;19.60;97.30;;;;;;5115540;28;20031;-66
2022/10/24 10:10:29;;;;;;;32.15;14.60;;;19.70;97.60;;;;;;5115393;28;20485;-67
2022/10/24 10:13:03;;;;;;;25.58;13.63;;;19.70;97.70;;;;;;5114891;28;20048;-65
2022/10/24 10:15:35;;;;;;;24.92;14.30;;;19.70;97.90;;;;;;5115121;28;20502;-66
2022/10/24 10:18:21;;;;;;;21.77;13.35;;;19.70;97.60;;;;;;5115106;27;20035;-67
2022/10/24 10:20:56;;;;;;;23.42;14.02;;;19.80;97.60;;;;;;5114614;28;20512;-66
2022/10/24 10:23:23;;;;;;;24.48;13.45;;;19.80;97.90;;;;;;5115154;28;20035;-66
2022/10/24 10:25:49;;;;;;;22.80;13.38;;;19.80;97.80;;;;;;5115180;28;20047;-67
2022/10/24 10:28:20;;;;;;;24.38;14.60;;;19.80;97.30;;;;;;5115015;28;20485;-66
2022/10/24 10:30:56;;;;;;;25.73;13.57;;;19.80;97.20;;;;;;5114887;28;20028;-66
2022/10/24 10:33:35;;;;;;;24.95;13.25;;;19.80;97.60;;;;;;5114145;28;20307;-67
2022/10/24 10:36:30;;;;;;;24.00;13.23;;;19.80;97.20;;;;;;5114634;28;20431;-67
2022/10/24 10:39:21;;;;;;;19.00;12.52;;;19.80;97.10;;;;;;5114753;28;20042;-67
2022/10/24 10:42:00;;;;;;;27.83;13.40;;;19.80;97.20;;;;;;5114767;28;20094;-67
2022/10/24 10:45:00;;;;;;;23.35;13.55;;;19.80;97.30;;;;;;5114542;28;20032;-67
2022/10/24 10:47:46;;;;;;;23.70;14.18;;;19.80;97.50;;;;;;5083195;28;20039;-67
2022/10/24 10:50:43;;;;;;;28.58;14.57;;;19.80;97.60;;;;;;5114689;28;20035;-68
2022/10/24 10:53:24;;;;;;;21.20;14.48;;;19.80;97.80;;;;;;5072889;28;20144;-67
2022/10/24 10:56:02;;;;;;;23.17;14.32;;;19.80;98.00;;;;;;5114218;28;20088;-68
2022/10/24 10:58:46;;;;;;;25.40;13.48;;;19.80;98.00;;;;;;5114260;28;20100;-67
2022/10/24 11:01:20;;;;;;;20.95;14.52;;;19.80;97.60;;;;;;5114378;28;20043;-68
2022/10/24 11:03:54;;;;;;;19.42;13.40;;;19.90;98.00;;;;;;5114339;28;20099;-67
2022/10/24 11:06:47;;;;;;;30.23;13.95;;;19.90;98.20;;;;;;5114181;28;20036;-67
2022/10/24 11:09:41;;;;;;;24.60;14.57;;;19.90;97.70;;;;;;5113893;28;20035;-68
2022/10/24 11:12:40;;;;;;;20.88;13.98;;;19.90;97.80;;;;;;5114184;28;20027;-68
2022/10/24 11:15:20;;;;;;;27.15;13.50;;;19.90;97.70;;;;;;5109944;28;20039;-67
2022/10/24 11:17:52;;;;;;;30.30;13.02;;;20.00;97.60;;;;;;5113728;28;20028;-68
2022/10/24 11:20:25;;;;;;;23.95;12.65;;;20.00;97.40;;;;;;5113934;28;20107;-68
2022/10/24 11:23:11;;;;;;;19.60;12.50;;;20.00;97.20;;;;;;5113958;28;20027;-68
2022/10/24 11:26:02;;;;;;;27.10;13.38;;;20.00;97.10;;;;;;5114398;28;20060;-68
2022/10/24 11:28:52;;;;;;;32.80;13.10;;;20.10;96.80;;;;;;5114027;28;20062;-68
2022/10/24 11:31:36;;;;;;;25.42;12.25;;;20.10;96.90;;;;;;5113967;28;20027;-68
2022/10/24 11:34:18;;;;;;;23.60;12.65;;;20.10;96.50;;;;;;5113560;28;20051;-68
2022/10/24 11:36:52;;;;;;;22.07;12.63;;;20.10;96.70;;;;;;5113904;28;20035;-68
2022/10/24 11:39:21;;;;;;;16.42;11.93;;;20.10;96.80;;;;;;5109693;28;20042;-68
2022/10/24 11:41:51;;;;;;;24.88;12.75;;;20.10;96.80;;;;;;5093370;28;20040;-67
2022/10/24 11:44:28;;;;;;;21.83;12.80;;;20.10;96.90;;;;;;5093004;28;20036;-67
2022/10/24 11:47:23;;;;;;;24.77;13.05;;;20.10;97.00;;;;;;5093268;28;20039;-67
2022/10/24 11:50:05;;;;;;;25.92;12.52;;;20.10;97.00;;;;;;5078282;28;20386;-68
2022/10/24 11:52:37;;;;;;;24.88;12.60;;;20.10;97.00;;;;;;5093394;28;20066;-67
2022/10/24 11:55:25;;;;;;;22.55;12.48;;;20.10;96.90;;;;;;5093042;28;20024;-68
2022/10/24 11:57:55;;;;;;;23.10;12.88;;;20.10;96.90;;;;;;5093096;28;20039;-67
2022/10/24 12:00:50;;;;;;;21.50;12.95;;;20.10;96.80;;;;;;5093334;28;20062;-68
2022/10/24 12:03:49;;;;;;;24.50;12.77;;;20.10;96.80;;;;;;5089020;28;20093;-68
2022/10/24 12:06:22;;;;;;;25.27;12.48;;;20.10;96.80;;;;;;5072633;28;20056;-68
2022/10/24 12:09:22;;;;;;;21.67;11.70;;;20.20;96.60;;;;;;5072842;28;20090;-68
2022/10/24 12:11:59;;;;;;;22.48;11.60;;;20.10;96.50;;;;;;5072536;28;20494;-68
2022/10/24 12:14:33;;;;;;;29.08;12.15;;;20.20;96.40;;;;;;5072456;28;20063;-68
2022/10/24 12:17:29;;;;;;;30.15;11.60;;;20.20;96.20;;;;;;5072905;28;20025;-68
2022/10/24 12:19:55;;;;;;;23.02;12.25;;;20.20;96.40;;;;;;5071402;28;20032;-68
2022/10/24 12:22:29;;;;;;;23.08;11.80;;;20.20;96.60;;;;;;5072623;28;20062;-68
2022/10/24 12:25:20;;;;;;;23.55;12.45;;;20.30;96.60;;;;;;5072781;28;20024;-67
2022/10/24 12:27:53;;;;;;;25.90;12.00;;;20.30;96.60;;;;;;5072717;28;20141;-68
2022/10/24 12:30:23;;;;;;;29.50;12.55;;;20.30;96.60;;;;;;5072974;28;20512;-68
2022/10/24 12:32:51;;;;;;;30.88;12.43;;;20.30;96.50;;;;;;5071196;28;20037;-68
2022/10/24 12:35:33;;;;;;;26.50;12.38;;;20.40;96.20;;;;;;5072694;28;20033;-68
2022/10/24 12:38:00;;;;;;;24.42;12.55;;;20.40;96.30;;;;;;5072967;28;20040;-67
2022/10/24 12:40:44;;;;;;;31.45;12.50;;;20.40;96.50;;;;;;5072496;28;20035;-68
2022/10/24 12:43:38;;;;;;;26.08;11.82;;;20.50;96.50;;;;;;5071296;28;20438;-68
2022/10/24 14:01:48;;;;;;;25.02;10.07;;;21.40;92.50;;;;;;5051410;28;20126;-68
2022/10/24 14:04:14;;;;;;;17.92;9.88;;;21.40;91.80;;;;;;5051237;28;20049;-67
2022/10/24 14:06:41;;;;;;;18.73;9.63;;;21.40;92.10;;;;;;5053809;28;20387;-66
2022/10/24 14:09:09;;;;;;;24.60;11.23;;;21.30;92.40;;;;;;5054238;28;20052;-68
2022/10/24 14:11:41;;;;;;;22.92;10.75;;;21.30;91.90;;;;;;5062003;28;20028;-66
2022/10/24 14:14:44;;;;;;;22.05;10.35;;;21.20;92.00;;;;;;5074078;28;20044;-66
2022/10/24 14:17:25;;;;;;;19.40;10.13;;;21.20;92.00;;;;;;5065217;28;20041;-67
2022/10/24 14:19:55;;;;;;;19.13;10.70;;;21.10;92.00;;;;;;5074408;28;20039;-68
2022/10/24 14:22:24;;;;;;;31.05;10.98;;;21.10;92.30;;;;;;5074368;28;20044;-68
2022/10/24 14:24:50;;;;;;;24.17;10.95;;;21.10;92.60;;;;;;5074175;28;20417;-68
2022/10/24 14:27:18;;;;;;;23.17;11.35;;;21.00;92.70;;;;;;5074197;28;20037;-68
2022/10/24 14:29:59;;;;;;;25.30;12.45;;;21.00;93.00;;;;;;5074278;28;20478;-68
2022/10/24 14:32:27;;;;;;;20.40;11.48;;;21.00;92.80;;;;;;5074109;28;20047;-67
2022/10/24 14:34:55;;;;;;;30.73;11.95;;;21.00;92.90;;;;;;5074288;28;20028;-68
2022/10/24 14:37:31;;;;;;;17.65;10.85;;;21.00;93.10;;;;;;5074291;28;20429;-68
2022/10/24 14:39:57;;;;;;;27.27;11.45;;;21.00;93.20;;;;;;5074075;28;20039;-68
2022/10/24 14:42:24;;;;;;;27.00;12.18;;;20.90;93.30;;;;;;5073929;28;20385;-68
2022/10/24 14:44:50;;;;;;;24.92;11.55;;;20.90;93.40;;;;;;5072598;28;20513;-68
2022/10/24 14:47:24;;;;;;;34.78;12.93;;;20.90;93.40;;;;;;5073849;28;20033;-68
2022/10/24 14:49:50;;;;;;;18.73;10.85;;;20.90;93.40;;;;;;5073856;28;20028;-68
2022/10/24 14:52:23;;;;;;;20.38;11.55;;;20.80;93.40;;;;;;5073542;28;20044;-68
2022/10/24 14:55:19;;;;;;;21.15;11.77;;;20.80;93.60;;;;;;5073682;28;20447;-68
2022/10/24 14:57:50;;;;;;;20.92;11.60;;;20.80;93.80;;;;;;5072732;28;20033;-68
2022/10/24 15:00:24;;;;;;;17.38;11.88;;;20.80;94.10;;;;;;5073864;28;20124;-68
2022/10/24 15:02:52;;;;;;;30.23;12.20;;;20.80;94.00;;;;;;5073406;28;20087;-68
2022/10/24 15:05:18;;;;;;;22.75;12.48;;;20.80;94.00;;;;;;5073547;28;20033;-68